createdAt,value
2023-03-18T00:02:04.014Z,99418.94
2023-03-18T00:07:05.678Z,99420.25
2023-03-18T00:12:08.444Z,99417.84
2023-03-18T00:17:10.156Z,99414.41
2023-03-18T00:22:11.927Z,99419.28
2023-03-18T00:27:14.129Z,99426.44
2023-03-18T00:32:15.873Z,99415.19
2023-03-18T00:37:30.141Z,99409.28
2023-03-18T00:42:39.152Z,99427.00
2023-03-18T00:47:42.098Z,99424.75
2023-03-18T00:52:45.352Z,99426.63
2023-03-18T00:57:47.200Z,99420.19
2023-03-18T01:02:49.411Z,99418.06
2023-03-18T01:07:51.853Z,99407.88
2023-03-18T01:12:55.858Z,99409.56
2023-03-18T01:17:58.498Z,99403.91
2023-03-18T01:23:01.448Z,99403.91
2023-03-18T01:28:04.081Z,99405.66
2023-03-18T01:33:07.739Z,99404.00
2023-03-18T01:38:12.516Z,99407.91
2023-03-18T01:43:28.229Z,99398.53
2023-03-18T01:48:35.810Z,99383.31
2023-03-18T01:53:45.966Z,99385.66
2023-03-18T01:58:51.279Z,99379.59
2023-03-18T02:03:54.203Z,99384.72
2023-03-18T02:08:56.666Z,99378.78
2023-03-18T02:14:00.508Z,99370.38
2023-03-18T02:19:11.155Z,99365.53
2023-03-18T02:24:41.521Z,99364.06
2023-03-18T02:29:44.871Z,99364.69
2023-03-18T02:34:47.333Z,99368.88
2023-03-18T02:39:49.247Z,99381.81
2023-03-18T02:44:50.952Z,99368.13
2023-03-18T02:49:53.670Z,99377.09
2023-03-18T02:54:59.264Z,99373.94
2023-03-18T03:00:01.103Z,99382.31
2023-03-18T03:05:02.980Z,99373.56
2023-03-18T03:10:06.157Z,99382.13
2023-03-18T03:15:09.004Z,99385.75
2023-03-18T03:20:12.304Z,99382.56
2023-03-18T03:25:14.839Z,99387.53
2023-03-18T03:30:18.513Z,99397.56
2023-03-18T03:35:21.432Z,99402.03
2023-03-18T03:40:23.412Z,99401.81
2023-03-18T03:45:25.438Z,99406.47
2023-03-18T03:50:27.154Z,99403.22
2023-03-18T03:55:29.307Z,99425.34
2023-03-18T04:00:31.279Z,99420.22
2023-03-18T04:05:33.107Z,99408.59
2023-03-18T04:10:36.751Z,99416.16
2023-03-18T04:15:38.451Z,99419.03
2023-03-18T04:20:40.661Z,99432.78
2023-03-18T04:25:42.864Z,99426.59
2023-03-18T04:30:44.703Z,99429.06
2023-03-18T04:35:48.766Z,99429.97
2023-03-18T04:40:50.556Z,99433.88
2023-03-18T04:45:52.967Z,99442.59
2023-03-18T04:50:55.023Z,99450.84
2023-03-18T04:55:56.927Z,99451.59
2023-03-18T05:00:58.749Z,99450.28
2023-03-18T05:06:00.961Z,99452.22
2023-03-18T05:11:03.464Z,99450.44
2023-03-18T05:16:06.734Z,99443.38
2023-03-18T05:21:10.244Z,99458.19
2023-03-18T05:26:12.235Z,99455.97
2023-03-18T05:31:13.843Z,99458.00
2023-03-18T05:36:15.538Z,99451.69
2023-03-18T05:41:17.390Z,99465.88
2023-03-18T05:46:19.080Z,99466.44
2023-03-18T05:51:20.942Z,99469.56
2023-03-18T05:56:22.780Z,99470.31
2023-03-18T06:01:26.011Z,99471.50
2023-03-18T06:06:27.874Z,99483.66
2023-03-18T06:11:29.571Z,99477.69
2023-03-18T06:16:32.891Z,99481.25
2023-03-18T06:21:35.009Z,99482.34
2023-03-18T06:26:36.912Z,99485.03
2023-03-18T06:31:38.569Z,99491.69
2023-03-18T06:36:40.240Z,99495.06
2023-03-18T06:41:41.877Z,99506.22
2023-03-18T06:46:44.064Z,99515.06
2023-03-18T06:51:46.007Z,99511.66
2023-03-18T06:56:47.680Z,99516.34
2023-03-18T07:01:49.622Z,99518.06
2023-03-18T07:06:52.636Z,99510.16
2023-03-18T07:11:54.286Z,99513.66
2023-03-18T07:16:56.173Z,99516.63
2023-03-18T07:21:58.046Z,99519.09
2023-03-18T07:26:59.701Z,99526.00
2023-03-18T07:32:01.981Z,99532.63
2023-03-18T07:37:04.125Z,99530.78
2023-03-18T07:42:06.551Z,99530.78
2023-03-18T07:47:08.186Z,99546.91
2023-03-18T07:52:10.522Z,99538.06
2023-03-18T07:57:13.055Z,99548.13
2023-03-18T08:02:15.986Z,99541.91
2023-03-18T08:07:18.096Z,99537.06
2023-03-18T08:12:19.998Z,99535.81
2023-03-18T08:17:21.724Z,99536.31
2023-03-18T08:22:25.591Z,99537.78
2023-03-18T08:27:27.204Z,99537.47
2023-03-18T08:32:28.853Z,99541.97
2023-03-18T08:37:30.975Z,99537.22
2023-03-18T08:42:32.589Z,99538.31
2023-03-18T08:47:34.216Z,99542.72
2023-03-18T08:52:38.018Z,99532.06
2023-03-18T08:57:39.818Z,99527.91
2023-03-18T09:02:41.688Z,99531.50
2023-03-18T09:07:44.068Z,99529.84
2023-03-18T09:12:47.580Z,99524.72
2023-03-18T09:18:07.999Z,99518.25
2023-03-18T09:23:12.627Z,99518.59
2023-03-18T09:28:14.571Z,99522.16
2023-03-18T09:33:16.538Z,99519.47
2023-03-18T09:38:20.139Z,99515.78
2023-03-18T09:43:24.659Z,99512.94
2023-03-18T09:49:03.128Z,99512.00
2023-03-18T09:54:05.786Z,99509.22
2023-03-18T09:59:38.344Z,99506.47
2023-03-18T10:04:46.431Z,99502.84
2023-03-18T10:10:17.303Z,99495.53
2023-03-18T10:15:31.466Z,99491.06
2023-03-18T10:20:56.784Z,99501.22
2023-03-18T10:26:05.183Z,99497.47
2023-03-18T10:31:39.463Z,99494.91
2023-03-18T10:37:11.074Z,99490.25
2023-03-18T10:42:24.895Z,99488.53
2023-03-18T10:47:37.014Z,99489.66
2023-03-18T10:52:54.708Z,99490.94
2023-03-18T10:57:56.623Z,99483.31
2023-03-18T11:02:59.772Z,99486.81
2023-03-18T11:08:09.153Z,99487.88
2023-03-18T11:13:17.389Z,99480.25
2023-03-18T11:18:24.681Z,99485.53
2023-03-18T11:23:53.923Z,99475.22
2023-03-18T11:29:05.337Z,99475.22
2023-03-18T11:34:09.035Z,99483.53
2023-03-18T11:39:15.111Z,99484.47
2023-03-18T11:44:19.297Z,99482.50
2023-03-18T11:49:27.223Z,99485.91
2023-03-18T11:54:54.962Z,99485.63
2023-03-18T12:00:17.578Z,99480.72
2023-03-18T12:05:46.986Z,99468.03
2023-03-18T12:11:16.349Z,99469.06
2023-03-18T12:16:37.378Z,99461.47
2023-03-18T12:22:15.400Z,99465.34
2023-03-18T12:27:48.102Z,99457.44
2023-03-18T12:33:01.466Z,99462.19
2023-03-18T12:38:29.271Z,99463.88
2023-03-18T12:43:58.621Z,99449.22
2023-03-18T12:49:16.886Z,99444.16
2023-03-18T12:54:26.016Z,99438.78
2023-03-18T12:59:40.639Z,99438.34
2023-03-18T13:04:53.187Z,99434.22
2023-03-18T13:10:03.987Z,99436.88
2023-03-18T13:15:20.741Z,99433.84
2023-03-18T13:20:22.354Z,99430.59
2023-03-18T13:25:47.116Z,99437.41
2023-03-18T13:31:10.752Z,99431.38
2023-03-18T13:36:23.652Z,99434.66
2023-03-18T13:42:02.712Z,99430.88
2023-03-18T13:47:09.156Z,99430.63
2023-03-18T13:52:43.999Z,99435.75
2023-03-18T13:57:53.985Z,99431.44
2023-03-18T14:03:23.035Z,99428.28
2023-03-18T14:08:42.420Z,99426.03
2023-03-18T14:13:45.307Z,99417.13
2023-03-18T14:19:10.198Z,99420.22
2023-03-18T14:24:22.431Z,99419.19
2023-03-18T14:29:37.642Z,99425.47
2023-03-18T14:34:58.927Z,99423.28
2023-03-18T14:40:17.164Z,99417.81
2023-03-18T14:45:26.215Z,99414.72
2023-03-18T14:50:29.628Z,99417.03
2023-03-18T14:55:35.665Z,99399.72
2023-03-18T15:00:37.674Z,99403.50
2023-03-18T15:05:42.723Z,99396.91
2023-03-18T15:10:47.739Z,99392.41
2023-03-18T15:15:54.759Z,99395.22
2023-03-18T15:21:00.985Z,99391.28
2023-03-18T15:26:07.760Z,99387.53
2023-03-18T15:31:13.025Z,99391.81
2023-03-18T15:36:16.803Z,99382.50
2023-03-18T15:41:21.753Z,99384.28
2023-03-18T15:46:29.365Z,99386.59
2023-03-18T15:51:40.660Z,99380.47
2023-03-18T15:56:48.850Z,99386.59
2023-03-18T16:01:50.610Z,99376.53
2023-03-18T16:07:01.826Z,99377.63
2023-03-18T16:12:23.961Z,99367.53
2023-03-18T16:17:25.600Z,99379.59
2023-03-18T16:22:27.794Z,99381.31
2023-03-18T16:27:38.486Z,99374.00
2023-03-18T16:32:40.128Z,99379.00
2023-03-18T16:37:44.224Z,99386.06
2023-03-18T16:42:49.657Z,99394.13
2023-03-18T16:47:52.050Z,99396.03
2023-03-18T16:52:53.823Z,99401.41
2023-03-18T16:57:59.887Z,99407.63
2023-03-18T17:03:02.508Z,99397.47
2023-03-18T17:08:04.229Z,99406.72
2023-03-18T17:13:09.093Z,99406.09
2023-03-18T17:18:19.460Z,99414.63
2023-03-18T17:23:22.566Z,99433.47
2023-03-18T17:28:33.098Z,99436.19
2023-03-18T17:33:36.052Z,99447.03
2023-03-18T17:38:37.868Z,99445.50
2023-03-18T17:43:40.308Z,99448.06
2023-03-18T17:48:42.236Z,99455.41
2023-03-18T17:53:49.595Z,99454.59
2023-03-18T17:58:52.486Z,99452.88
2023-03-18T18:03:56.075Z,99456.88
2023-03-18T18:09:00.325Z,99463.72
2023-03-18T18:14:29.379Z,99465.13
2023-03-18T18:19:30.983Z,99462.00
2023-03-18T18:24:33.533Z,99462.63
2023-03-18T18:29:35.275Z,99466.44
2023-03-18T18:34:37.257Z,99476.69
2023-03-18T18:39:39.219Z,99473.09
2023-03-18T18:44:41.001Z,99474.84
2023-03-18T18:49:43.549Z,99479.75
2023-03-18T18:54:45.508Z,99479.09
2023-03-18T18:59:47.695Z,99485.13
2023-03-18T19:04:49.452Z,99486.44
2023-03-18T19:09:51.565Z,99491.09
2023-03-18T19:14:53.531Z,99500.72
2023-03-18T19:19:55.675Z,99503.44
2023-03-18T19:24:57.738Z,99510.22
2023-03-18T19:30:04.703Z,99507.84
2023-03-18T19:35:07.129Z,99504.34
2023-03-18T19:40:23.833Z,99496.94
2023-03-18T19:45:25.853Z,99513.66
2023-03-18T19:50:27.692Z,99519.72
2023-03-18T19:55:29.909Z,99520.81
2023-03-18T20:00:31.706Z,99521.63
2023-03-18T20:05:33.741Z,99524.97
2023-03-18T20:10:35.679Z,99534.69
2023-03-18T20:15:38.518Z,99546.38
2023-03-18T20:20:43.309Z,99549.81
2023-03-18T20:25:46.860Z,99550.13
2023-03-18T20:30:53.046Z,99551.75
2023-03-18T20:35:54.846Z,99558.09
2023-03-18T20:40:57.342Z,99556.34
2023-03-18T20:46:01.358Z,99555.69
2023-03-18T20:51:03.499Z,99555.41
2023-03-18T20:56:05.610Z,99561.66
2023-03-18T21:01:12.632Z,99559.25
2023-03-18T21:06:16.313Z,99575.75
2023-03-18T21:11:27.198Z,99564.97
2023-03-18T21:16:28.933Z,99569.66
2023-03-18T21:21:38.490Z,99581.13
2023-03-18T21:26:41.082Z,99574.44
2023-03-18T21:31:43.650Z,99568.81
2023-03-18T21:36:46.563Z,99567.53
2023-03-18T21:41:50.493Z,99570.16
2023-03-18T21:46:55.584Z,99570.91
2023-03-18T21:51:57.710Z,99571.81
2023-03-18T21:56:59.969Z,99570.53
2023-03-18T22:02:02.222Z,99579.25
2023-03-18T22:07:03.966Z,99571.41
2023-03-18T22:12:32.155Z,99567.44
2023-03-18T22:17:36.252Z,99553.53
2023-03-18T22:22:39.478Z,99557.81
2023-03-18T22:27:41.241Z,99544.22
2023-03-18T22:32:45.292Z,99559.66
2023-03-18T22:37:47.949Z,99556.63
2023-03-18T22:42:53.774Z,99572.38
2023-03-18T22:47:58.703Z,99567.53
2023-03-18T22:53:04.467Z,99568.16
2023-03-18T22:58:06.875Z,99573.03
2023-03-18T23:03:26.662Z,99574.25
2023-03-18T23:08:28.793Z,99569.66
2023-03-18T23:13:36.193Z,99562.00
2023-03-18T23:18:38.618Z,99571.47
2023-03-18T23:23:40.532Z,99579.63
2023-03-18T23:28:46.003Z,99567.88
2023-03-18T23:33:47.866Z,99570.03
2023-03-18T23:38:50.417Z,99567.13
2023-03-18T23:43:52.064Z,99572.06
2023-03-18T23:48:53.672Z,99571.06
2023-03-18T23:53:55.324Z,99564.88
2023-03-18T23:58:56.964Z,99568.25
